Time;durP1;ratioP1;P1;durP2;ratioP2;P2;SDS_P1;SDS_P2;PMS_P1;PMS_P2;Temp;Humidity;BMP_temperature;BMP_pressure;BME280_temperature;BME280_humidity;BME280_pressure;Samples;Min_cycle;Max_cycle;Signal;HPM_P1;HPM_P2
2021/12/20 00:01:42;;;;;;;29.33;4.38;;;6.70;99.90;;;;;;4979126;28;20205;-84
2021/12/20 00:04:08;;;;;;;21.60;3.95;;;6.70;99.90;;;;;;4981901;28;20161;-84
2021/12/20 00:06:34;;;;;;;28.02;4.95;;;6.70;99.90;;;;;;4967350;28;20548;-84
2021/12/20 00:08:59;;;;;;;26.30;4.35;;;6.80;99.90;;;;;;4975886;28;20052;-83
2021/12/20 00:11:25;;;;;;;27.63;4.20;;;6.80;99.90;;;;;;4984726;28;20379;-84
2021/12/20 00:13:51;;;;;;;27.65;4.95;;;6.70;99.90;;;;;;4981860;28;20101;-84
2021/12/20 00:16:17;;;;;;;33.45;4.63;;;6.70;99.90;;;;;;4981168;28;20068;-85
2021/12/20 00:18:43;;;;;;;26.10;4.63;;;6.70;99.90;;;;;;4980937;28;20478;-84
2021/12/20 00:21:10;;;;;;;27.67;4.70;;;6.80;99.90;;;;;;4977380;28;20949;-84
2021/12/20 00:23:36;;;;;;;27.05;4.93;;;6.70;99.90;;;;;;4979122;28;20464;-84
2021/12/20 00:26:02;;;;;;;25.13;4.50;;;6.70;99.90;;;;;;5000542;28;20722;-84
2021/12/20 00:28:28;;;;;;;25.55;4.88;;;6.70;99.90;;;;;;4974296;28;20054;-84
2021/12/20 00:30:54;;;;;;;24.65;4.68;;;6.70;99.90;;;;;;5000195;28;20039;-84
2021/12/20 00:33:20;;;;;;;29.73;4.35;;;6.70;99.90;;;;;;4999063;28;20784;-84
2021/12/20 00:35:47;;;;;;;40.05;5.10;;;6.60;99.90;;;;;;5019379;28;20058;-85
2021/12/20 00:40:59;;;;;;;56.40;5.93;;;6.60;99.90;;;;;;5001643;28;20210;-86
2021/12/20 00:43:25;;;;;;;31.48;4.50;;;6.60;99.90;;;;;;4973107;28;20054;-85
2021/12/20 00:45:51;;;;;;;29.00;4.93;;;6.60;99.90;;;;;;4978061;28;20128;-84
2021/12/20 00:48:16;;;;;;;31.52;4.55;;;6.50;99.90;;;;;;4998275;28;20400;-84
2021/12/20 00:50:43;;;;;;;27.30;4.38;;;6.50;99.90;;;;;;4991507;28;20043;-84
2021/12/20 00:53:11;;;;;;;31.08;5.38;;;6.50;99.90;;;;;;4993906;28;20043;-85
2021/12/20 00:55:37;;;;;;;30.17;4.63;;;6.50;99.90;;;;;;4998526;28;20051;-84
2021/12/20 00:58:06;;;;;;;31.55;4.47;;;6.40;99.90;;;;;;4986158;28;20036;-84
2021/12/20 01:00:38;;;;;;;30.80;4.97;;;6.40;99.90;;;;;;4993243;28;20067;-84
2021/12/20 01:03:05;;;;;;;26.13;4.05;;;6.30;99.90;;;;;;4998493;28;20478;-84
2021/12/20 01:05:31;;;;;;;31.38;4.60;;;6.20;99.90;;;;;;4994201;28;20051;-84
2021/12/20 01:08:00;;;;;;;25.05;4.43;;;6.20;99.90;;;;;;4972277;28;20074;-84
2021/12/20 01:10:28;;;;;;;25.13;4.60;;;6.10;99.90;;;;;;4977811;28;20086;-84
2021/12/20 01:12:55;;;;;;;30.38;4.60;;;6.00;99.90;;;;;;4996940;28;20731;-84
2021/12/20 01:15:27;;;;;;;25.23;4.75;;;5.90;99.90;;;;;;4999500;28;20958;-84
2021/12/20 01:17:53;;;;;;;25.13;4.28;;;5.90;99.90;;;;;;4992799;28;20534;-85
2021/12/20 01:20:20;;;;;;;31.27;4.85;;;5.80;99.90;;;;;;5001384;28;21058;-85
2021/12/20 01:22:48;;;;;;;28.95;4.15;;;5.80;99.90;;;;;;4990030;28;20052;-84
2021/12/20 01:25:14;;;;;;;27.38;4.32;;;5.70;99.90;;;;;;4990656;28;20662;-84
2021/12/20 01:27:40;;;;;;;32.83;4.55;;;5.70;99.90;;;;;;4995939;28;20263;-84
2021/12/20 01:30:08;;;;;;;25.33;3.90;;;5.60;99.90;;;;;;4993383;28;20047;-84
2021/12/20 01:32:34;;;;;;;23.63;3.67;;;5.50;99.90;;;;;;4995825;28;20216;-84
2021/12/20 01:35:00;;;;;;;20.70;3.75;;;5.30;99.90;;;;;;4992012;28;20412;-85
2021/12/20 01:37:25;;;;;;;31.42;4.53;;;5.30;99.90;;;;;;4995310;28;20052;-84
2021/12/20 01:39:53;;;;;;;27.08;4.30;;;5.40;99.90;;;;;;4991877;28;20048;-84
2021/12/20 01:42:20;;;;;;;32.40;4.68;;;5.30;99.90;;;;;;4996164;28;20059;-84
2021/12/20 01:44:49;;;;;;;29.55;4.30;;;5.20;99.90;;;;;;4977536;28;20051;-84
2021/12/20 01:47:16;;;;;;;28.52;4.32;;;5.20;99.90;;;;;;4978634;28;20465;-84
2021/12/20 01:49:56;;;;;;;24.52;4.32;;;5.20;99.90;;;;;;4995176;28;20055;-84
2021/12/20 01:52:26;;;;;;;20.75;3.67;;;4.90;99.90;;;;;;5000142;28;20662;-85
2021/12/20 01:54:51;;;;;;;26.25;4.20;;;5.00;99.90;;;;;;4996981;28;20450;-84
2021/12/20 01:57:19;;;;;;;24.02;4.18;;;4.90;99.90;;;;;;4999557;28;20435;-84
2021/12/20 01:59:45;;;;;;;26.65;4.35;;;4.90;99.90;;;;;;4979508;28;20040;-84
2021/12/20 02:02:11;;;;;;;30.08;4.88;;;4.90;99.90;;;;;;5020713;28;20075;-84
2021/12/20 02:04:44;;;;;;;24.25;3.95;;;4.90;99.90;;;;;;5020325;28;20442;-84
2021/12/20 02:07:29;;;;;;;;;;;4.70;99.90;;;;;;4985395;28;20590;-85
2021/12/20 02:09:55;;;;;;;25.63;3.58;;;4.60;99.90;;;;;;5003113;28;20899;-84
2021/12/20 02:12:21;;;;;;;18.50;3.80;;;4.70;99.90;;;;;;5002503;28;20044;-84
2021/12/20 02:14:47;;;;;;;22.65;3.58;;;4.50;99.90;;;;;;5002008;28;21115;-84
2021/12/20 02:17:14;;;;;;;32.30;4.50;;;4.40;99.90;;;;;;4984255;28;20457;-84
2021/12/20 02:19:40;;;;;;;20.77;4.05;;;4.50;99.90;;;;;;5001907;28;20470;-84
2021/12/20 02:22:06;;;;;;;27.80;4.53;;;4.50;99.90;;;;;;4997024;28;20047;-84
2021/12/20 02:24:32;;;;;;;25.13;4.18;;;4.30;99.90;;;;;;5004374;28;20125;-84
2021/12/20 02:26:58;;;;;;;27.77;4.20;;;4.30;99.90;;;;;;5000327;28;20079;-84
2021/12/20 02:29:39;;;;;;;23.00;3.05;;;4.30;99.90;;;;;;5002534;28;20113;-84
2021/12/20 02:37:34;;;;;;;20.52;3.35;;;4.00;99.90;;;;;;5004223;28;20382;-83
2021/12/20 02:39:59;;;;;;;21.02;3.40;;;4.00;99.90;;;;;;5007019;28;20070;-83
2021/12/20 02:42:32;;;;;;;23.02;3.95;;;4.00;99.90;;;;;;4970599;28;20035;-84
2021/12/20 02:45:36;;;;;;;24.35;3.72;;;3.80;99.90;;;;;;4999241;28;20494;-84
2021/12/20 02:47:50;;;;;;;26.30;3.95;;;3.50;99.90;;;;;;4999337;28;20047;-84
2021/12/20 02:50:16;;;;;;;18.88;3.38;;;3.60;99.90;;;;;;4979453;28;20406;-84
2021/12/20 02:52:42;;;;;;;24.38;3.97;;;3.80;99.90;;;;;;5002673;28;21017;-84
2021/12/20 02:55:09;;;;;;;22.58;3.65;;;3.80;99.90;;;;;;4981539;28;20529;-84
2021/12/20 02:57:36;;;;;;;22.85;3.17;;;3.80;99.90;;;;;;4999408;28;20568;-84
2021/12/20 03:00:06;;;;;;;27.80;3.92;;;3.70;99.90;;;;;;4996973;28;20051;-84
2021/12/20 03:02:32;;;;;;;26.70;3.47;;;3.80;99.90;;;;;;4999270;28;20647;-84
2021/12/20 03:04:57;;;;;;;31.55;4.03;;;3.70;99.90;;;;;;5001039;28;20047;-84
2021/12/20 03:07:26;;;;;;;28.50;3.60;;;3.70;99.90;;;;;;4986278;28;20071;-84
2021/12/20 03:09:58;;;;;;;26.67;3.42;;;3.60;99.90;;;;;;4984330;28;20039;-84
2021/12/20 03:12:27;;;;;;;21.83;3.47;;;3.30;99.90;;;;;;4999708;28;20044;-84
2021/12/20 03:15:00;;;;;;;25.23;4.55;;;3.30;99.90;;;;;;5001529;28;20054;-85
2021/12/20 03:17:27;;;;;;;30.95;3.85;;;3.20;99.90;;;;;;4996915;28;20043;-84
2021/12/20 03:19:52;;;;;;;25.75;3.50;;;3.30;99.90;;;;;;4980855;28;20059;-83
2021/12/20 03:22:21;;;;;;;29.33;4.10;;;3.40;99.90;;;;;;4988842;28;20134;-83
2021/12/20 03:24:48;;;;;;;22.55;3.63;;;3.30;99.90;;;;;;4999562;28;20047;-84
2021/12/20 03:27:14;;;;;;;24.08;3.75;;;3.30;99.90;;;;;;5017377;27;20410;-84
2021/12/20 03:29:40;;;;;;;27.92;3.50;;;3.30;99.90;;;;;;4983329;28;20043;-84
2021/12/20 03:32:06;;;;;;;26.63;3.55;;;3.20;99.90;;;;;;5002027;28;20139;-84
2021/12/20 03:34:32;;;;;;;24.73;3.00;;;3.20;99.90;;;;;;5002612;28;20386;-84
2021/12/20 03:36:58;;;;;;;23.55;2.90;;;3.20;99.90;;;;;;5001602;28;20767;-84
2021/12/20 03:39:24;;;;;;;20.85;2.75;;;3.20;99.90;;;;;;4968276;28;20104;-84
2021/12/20 03:41:50;;;;;;;19.45;3.25;;;3.20;99.90;;;;;;5005024;28;20045;-84
2021/12/20 03:44:16;;;;;;;20.33;3.30;;;3.10;99.90;;;;;;4967169;28;20210;-83
2021/12/20 03:46:42;;;;;;;17.58;3.10;;;3.00;99.90;;;;;;5018238;28;20040;-84
2021/12/20 03:49:08;;;;;;;16.42;2.97;;;3.00;99.90;;;;;;4997542;28;20506;-84
2021/12/20 03:51:35;;;;;;;15.68;2.58;;;2.90;99.90;;;;;;4997103;28;20455;-84
2021/12/20 03:54:02;;;;;;;17.23;2.40;;;2.80;99.90;;;;;;4989041;28;20412;-84
2021/12/20 03:56:28;;;;;;;19.25;3.15;;;2.80;99.90;;;;;;5004921;28;20354;-84
2021/12/20 03:58:53;;;;;;;24.40;3.28;;;2.70;99.90;;;;;;4999601;28;20043;-84
2021/12/20 04:01:19;;;;;;;20.30;3.15;;;2.70;99.90;;;;;;5002334;28;20668;-84
2021/12/20 04:03:45;;;;;;;32.72;4.47;;;2.80;99.90;;;;;;4981047;28;21146;-84
2021/12/20 04:06:13;;;;;;;28.00;3.83;;;2.80;99.90;;;;;;4992415;28;20862;-84
2021/12/20 04:08:40;;;;;;;28.83;4.18;;;2.70;99.90;;;;;;4978533;28;20960;-83
2021/12/20 04:11:06;;;;;;;31.17;4.15;;;2.50;99.90;;;;;;5003510;28;20051;-84
2021/12/20 04:13:32;;;;;;;26.85;4.70;;;2.60;99.90;;;;;;4977784;28;20112;-84
2021/12/20 04:15:59;;;;;;;29.92;4.40;;;2.70;99.90;;;;;;4979122;28;20040;-83
2021/12/20 04:18:26;;;;;;;29.42;4.57;;;2.70;99.90;;;;;;5001949;28;20051;-83
2021/12/20 04:20:53;;;;;;;35.92;4.80;;;2.70;99.90;;;;;;5003035;28;20172;-84
2021/12/20 04:23:19;;;;;;;41.10;5.70;;;2.60;99.90;;;;;;5001094;28;20391;-84
2021/12/20 04:25:45;;;;;;;38.72;7.40;;;2.80;99.90;;;;;;4999517;28;20326;-84
2021/12/20 04:28:11;;;;;;;45.45;6.57;;;2.70;99.90;;;;;;4995266;28;20726;-84
2021/12/20 04:30:36;;;;;;;40.17;6.80;;;2.60;99.90;;;;;;5003415;28;20540;-84
2021/12/20 04:33:02;;;;;;;40.53;6.68;;;2.70;99.90;;;;;;4995645;28;20642;-84
2021/12/20 04:35:28;;;;;;;40.75;5.93;;;2.80;99.90;;;;;;4994023;28;20040;-84
2021/12/20 04:37:56;;;;;;;41.88;5.85;;;2.80;99.90;;;;;;4998262;28;20441;-84
2021/12/20 04:40:22;;;;;;;32.15;5.57;;;2.70;99.90;;;;;;5003536;28;20594;-84
2021/12/20 04:42:51;;;;;;;36.78;5.32;;;2.60;99.90;;;;;;4997091;28;20512;-84
2021/12/20 04:45:17;;;;;;;33.55;6.10;;;2.50;99.90;;;;;;5003706;28;20977;-84
2021/12/20 04:47:43;;;;;;;28.92;5.00;;;2.60;99.90;;;;;;4995040;28;20039;-84
2021/12/20 04:50:09;;;;;;;32.17;4.68;;;2.70;99.90;;;;;;4965197;28;20858;-84
2021/12/20 04:52:36;;;;;;;29.85;6.05;;;2.50;99.90;;;;;;4980002;28;20044;-84
2021/12/20 04:55:02;;;;;;;28.13;5.10;;;2.50;99.90;;;;;;4998325;28;20051;-84
2021/12/20 04:57:28;;;;;;;31.40;4.82;;;2.60;99.90;;;;;;5000061;28;20821;-84
2021/12/20 04:59:54;;;;;;;30.02;5.15;;;2.60;99.90;;;;;;4997303;28;20044;-84
2021/12/20 05:02:20;;;;;;;35.67;4.93;;;2.70;99.90;;;;;;4999627;28;20100;-84
2021/12/20 05:04:45;;;;;;;28.98;4.93;;;2.70;99.90;;;;;;5000039;28;20063;-83
2021/12/20 05:07:11;;;;;;;29.60;4.65;;;2.50;99.90;;;;;;4977281;28;20050;-84
2021/12/20 05:09:41;;;;;;;30.00;5.32;;;2.70;99.90;;;;;;5000083;28;20051;-84
2021/12/20 05:12:14;;;;;;;27.98;4.38;;;2.70;99.90;;;;;;4994443;28;20413;-84
2021/12/20 05:14:43;;;;;;;37.58;4.88;;;2.70;99.90;;;;;;4980967;28;20079;-83
2021/12/20 05:17:11;;;;;;;24.83;4.40;;;2.70;99.90;;;;;;4999021;28;20509;-84
2021/12/20 05:19:38;;;;;;;30.05;4.15;;;2.60;99.90;;;;;;4998855;28;20703;-83
2021/12/20 05:22:05;;;;;;;19.20;3.90;;;2.70;99.90;;;;;;4995653;28;20048;-84
2021/12/20 05:24:30;;;;;;;27.60;4.00;;;2.60;99.90;;;;;;4994706;28;20063;-84
2021/12/20 05:26:56;;;;;;;18.08;3.60;;;2.50;99.90;;;;;;4974763;28;20454;-84
2021/12/20 05:29:24;;;;;;;19.00;3.30;;;2.40;99.90;;;;;;4975921;28;20044;-84
2021/12/20 05:31:50;;;;;;;29.25;4.50;;;2.30;99.90;;;;;;4993635;28;20094;-84
2021/12/20 05:34:16;;;;;;;17.98;3.03;;;2.40;99.90;;;;;;5002343;28;20055;-83
2021/12/20 05:36:42;;;;;;;18.48;3.75;;;2.30;99.90;;;;;;4983622;28;20443;-83
2021/12/20 05:39:08;;;;;;;45.78;2.70;;;2.30;99.90;;;;;;5001106;28;20128;-84
2021/12/20 05:41:34;;;;;;;19.55;3.35;;;2.10;99.90;;;;;;5000963;28;20114;-84
2021/12/20 05:44:00;;;;;;;13.52;2.70;;;2.10;99.90;;;;;;4980293;28;20687;-84
2021/12/20 05:46:25;;;;;;;20.45;2.88;;;2.10;99.90;;;;;;4999423;28;20816;-83
2021/12/20 05:48:54;;;;;;;29.67;3.97;;;2.00;99.90;;;;;;4998643;28;20478;-84
2021/12/20 05:51:19;;;;;;;28.33;3.75;;;1.80;99.90;;;;;;5000423;28;20086;-83
2021/12/20 05:53:45;;;;;;;34.95;4.57;;;1.90;99.90;;;;;;4998371;28;20234;-83
2021/12/20 05:56:13;;;;;;;35.08;4.47;;;2.30;99.90;;;;;;5003300;28;20479;-83
2021/12/20 05:58:39;;;;;;;28.88;4.10;;;2.20;99.90;;;;;;4999806;28;20416;-83
2021/12/20 06:01:05;;;;;;;36.55;4.38;;;2.00;99.90;;;;;;4996176;28;20047;-84
2021/12/20 06:03:31;;;;;;;36.13;4.72;;;2.20;99.90;;;;;;4998730;28;20260;-84
2021/12/20 06:05:59;;;;;;;32.88;3.90;;;2.30;99.90;;;;;;4996584;28;20116;-84
2021/12/20 06:08:25;;;;;;;23.08;4.15;;;2.10;99.90;;;;;;4996907;28;20376;-84
2021/12/20 06:10:51;;;;;;;25.48;4.13;;;2.10;99.90;;;;;;5001564;28;20306;-83
2021/12/20 06:13:17;;;;;;;31.17;4.70;;;2.10;99.90;;;;;;5000744;28;20427;-83
2021/12/20 06:15:42;;;;;;;24.83;4.78;;;2.00;99.90;;;;;;4981568;28;20078;-84
2021/12/20 06:18:08;;;;;;;29.92;4.85;;;2.10;99.90;;;;;;4992606;28;20524;-84
2021/12/20 06:20:34;;;;;;;25.52;4.50;;;2.30;99.90;;;;;;4997607;28;20588;-83
2021/12/20 06:23:00;;;;;;;34.70;4.97;;;2.30;99.90;;;;;;5002816;28;20047;-84
2021/12/20 06:25:26;;;;;;;32.20;4.88;;;2.20;99.90;;;;;;4980325;28;20048;-83
2021/12/20 06:27:53;;;;;;;30.38;4.30;;;2.30;99.90;;;;;;4988693;28;20105;-84
2021/12/20 06:30:18;;;;;;;33.22;4.75;;;2.30;99.90;;;;;;5002354;28;20070;-85
2021/12/20 06:32:45;;;;;;;29.95;4.72;;;2.30;99.90;;;;;;5002229;28;20509;-83
2021/12/20 06:35:13;;;;;;;35.38;4.78;;;2.30;99.90;;;;;;5003623;28;20052;-84
2021/12/20 06:37:40;;;;;;;29.75;4.45;;;2.30;99.90;;;;;;5004999;28;20082;-83
2021/12/20 06:40:06;;;;;;;31.55;4.47;;;2.20;99.90;;;;;;5001324;28;20048;-84
2021/12/20 06:42:37;;;;;;;28.65;4.30;;;1.90;99.90;;;;;;5003063;28;20047;-84
2021/12/20 06:45:05;;;;;;;26.48;4.05;;;1.80;99.90;;;;;;5000723;28;20043;-84
2021/12/20 06:47:30;;;;;;;26.27;4.55;;;1.70;99.90;;;;;;5005429;28;20941;-84
2021/12/20 06:49:56;;;;;;;22.25;4.57;;;1.80;99.90;;;;;;4994827;28;20039;-84
2021/12/20 06:52:22;;;;;;;157.45;8.55;;;1.70;99.90;;;;;;4999819;28;20218;-84
2021/12/20 06:54:50;;;;;;;24.65;4.28;;;1.60;99.90;;;;;;4992061;28;20670;-83
2021/12/20 06:57:16;;;;;;;29.15;5.10;;;1.70;99.90;;;;;;4976327;28;20074;-84
2021/12/20 06:59:41;;;;;;;27.00;4.45;;;1.90;99.90;;;;;;5015636;28;20374;-83
2021/12/20 07:02:07;;;;;;;25.40;4.38;;;1.80;99.90;;;;;;4974634;28;20132;-84
2021/12/20 07:04:33;;;;;;;42.80;3.85;;;1.70;99.90;;;;;;4999840;28;20216;-83
2021/12/20 07:06:59;;;;;;;17.60;3.22;;;1.60;99.90;;;;;;5006218;28;20583;-84
2021/12/20 07:09:25;;;;;;;17.17;3.33;;;1.50;99.90;;;;;;4996039;28;20504;-84
2021/12/20 07:11:53;;;;;;;31.55;3.35;;;1.60;99.90;;;;;;5005204;28;20092;-83
2021/12/20 07:14:19;;;;;;;155.27;10.15;;;1.40;99.90;;;;;;4999158;28;20196;-84
2021/12/20 07:16:45;;;;;;;41.17;4.10;;;1.30;99.90;;;;;;5001630;28;20223;-83
2021/12/20 07:19:11;;;;;;;25.80;4.28;;;1.30;99.90;;;;;;4990782;28;20374;-83
2021/12/20 07:21:37;;;;;;;60.08;3.83;;;1.20;99.90;;;;;;4979890;28;20055;-84
2021/12/20 07:24:03;;;;;;;33.97;3.00;;;1.30;99.90;;;;;;4975998;28;20055;-83
2021/12/20 07:26:30;;;;;;;114.40;5.93;;;1.20;99.90;;;;;;5004995;28;20071;-84
2021/12/20 07:28:56;;;;;;;29.40;2.70;;;1.10;99.90;;;;;;4999746;28;20588;-82
2021/12/20 07:31:22;;;;;;;23.10;3.40;;;1.10;99.90;;;;;;4977774;28;20063;-83
2021/12/20 07:33:48;;;;;;;28.55;4.35;;;1.20;99.90;;;;;;4997083;28;20408;-83
2021/12/20 07:36:15;;;;;;;146.18;6.95;;;1.10;99.90;;;;;;5002815;28;20464;-84
2021/12/20 07:38:41;;;;;;;91.05;4.65;;;1.10;99.90;;;;;;5002749;28;20043;-83
2021/12/20 07:41:07;;;;;;;21.58;4.03;;;0.90;99.90;;;;;;5004150;28;20110;-83
2021/12/20 07:43:33;;;;;;;31.17;5.53;;;0.90;99.90;;;;;;4984784;28;20441;-83
2021/12/20 07:45:59;;;;;;;27.17;5.07;;;1.10;99.90;;;;;;4997479;28;20044;-83
2021/12/20 07:48:26;;;;;;;24.95;4.22;;;1.10;99.90;;;;;;4996118;28;20081;-84
2021/12/20 07:50:52;;;;;;;29.27;4.90;;;1.10;99.90;;;;;;4997831;28;20058;-83
2021/12/20 07:53:18;;;;;;;24.05;4.68;;;1.10;99.90;;;;;;4998682;28;20490;-82
2021/12/20 07:55:44;;;;;;;22.92;4.22;;;1.20;99.90;;;;;;4978131;28;20443;-83
2021/12/20 07:58:09;;;;;;;26.75;3.88;;;1.10;99.90;;;;;;4990427;28;20054;-84
2021/12/20 08:00:36;;;;;;;24.30;3.70;;;1.10;99.90;;;;;;4999850;28;20210;-84
2021/12/20 08:03:02;;;;;;;44.72;5.38;;;1.10;99.90;;;;;;4997192;28;20456;-85
2021/12/20 08:05:28;;;;;;;83.75;7.20;;;1.10;99.90;;;;;;4997923;28;20242;-84
2021/12/20 08:07:55;;;;;;;111.63;7.70;;;1.00;99.90;;;;;;5013864;28;20388;-83
2021/12/20 08:10:24;;;;;;;80.03;6.93;;;0.90;99.90;;;;;;4999574;28;20039;-83
2021/12/20 08:12:51;;;;;;;69.35;7.70;;;0.90;99.90;;;;;;4995397;28;20055;-82
2021/12/20 08:15:18;;;;;;;121.75;9.05;;;0.80;99.90;;;;;;4995435;28;20452;-82
2021/12/20 08:17:43;;;;;;;25.05;6.50;;;0.90;99.90;;;;;;4996023;28;20047;-82
2021/12/20 08:20:11;;;;;;;32.42;6.00;;;1.10;99.90;;;;;;4994937;28;20054;-82
2021/12/20 08:22:39;;;;;;;143.93;12.60;;;1.30;99.90;;;;;;4999782;28;20104;-83
2021/12/20 08:25:06;;;;;;;34.53;6.95;;;1.30;99.90;;;;;;5010437;28;20109;-81
2021/12/20 08:27:32;;;;;;;50.20;8.77;;;1.40;99.90;;;;;;4994772;28;20058;-81
2021/12/20 08:29:58;;;;;;;35.08;7.28;;;1.60;99.90;;;;;;5019799;28;20442;-84
2021/12/20 08:32:24;;;;;;;19.85;6.32;;;1.60;99.90;;;;;;4978560;28;20383;-84
2021/12/20 08:34:50;;;;;;;22.45;6.20;;;1.60;99.90;;;;;;5000439;28;20039;-83
2021/12/20 08:37:16;;;;;;;21.75;5.68;;;1.70;99.90;;;;;;4996040;28;20082;-83
2021/12/20 08:39:42;;;;;;;24.40;5.93;;;1.60;99.90;;;;;;4980369;28;20081;-85
2021/12/20 08:42:08;;;;;;;24.55;6.18;;;1.80;99.90;;;;;;4993994;28;20426;-83
2021/12/20 08:44:34;;;;;;;29.50;5.70;;;1.90;99.90;;;;;;4990611;28;20048;-82
2021/12/20 08:47:01;;;;;;;25.70;5.53;;;1.90;99.90;;;;;;4996681;28;20235;-83
2021/12/20 08:49:27;;;;;;;41.28;6.93;;;2.00;99.90;;;;;;4980715;28;20709;-83
2021/12/20 08:51:55;;;;;;;25.75;5.00;;;2.20;99.90;;;;;;4994561;28;20916;-81
2021/12/20 08:54:24;;;;;;;22.58;5.35;;;2.20;99.90;;;;;;4997236;28;20534;-83
2021/12/20 08:56:51;;;;;;;20.30;5.10;;;2.40;99.90;;;;;;5004402;28;20146;-83
2021/12/20 08:59:17;;;;;;;17.88;4.88;;;2.30;99.90;;;;;;4999761;28;20432;-82
2021/12/20 09:01:43;;;;;;;19.75;4.65;;;2.40;99.90;;;;;;4996280;28;20075;-83
2021/12/20 09:04:09;;;;;;;18.10;4.53;;;2.50;99.90;;;;;;4974996;28;20059;-83
2021/12/20 09:06:39;;;;;;;18.95;5.10;;;2.50;99.90;;;;;;4996152;28;20047;-82
2021/12/20 09:09:07;;;;;;;20.45;5.13;;;2.50;99.90;;;;;;4996621;28;20143;-83
2021/12/20 09:11:33;;;;;;;19.63;4.80;;;2.70;99.90;;;;;;4994143;28;20047;-84
2021/12/20 09:13:59;;;;;;;21.50;4.85;;;2.70;99.90;;;;;;4996592;28;20044;-84
2021/12/20 09:16:25;;;;;;;16.52;5.10;;;2.70;99.90;;;;;;4996297;28;20150;-84
2021/12/20 09:18:51;;;;;;;24.65;6.00;;;2.80;99.90;;;;;;4999644;28;20424;-83
2021/12/20 09:21:17;;;;;;;19.30;6.30;;;2.80;99.90;;;;;;4998864;28;20682;-82
2021/12/20 09:23:43;;;;;;;27.15;7.93;;;2.90;99.90;;;;;;4993926;28;20638;-82
2021/12/20 09:26:10;;;;;;;20.48;7.97;;;3.00;99.90;;;;;;5004042;28;20560;-84
2021/12/20 09:28:36;;;;;;;19.60;7.25;;;3.20;99.90;;;;;;4969123;28;20296;-83
2021/12/20 09:31:04;;;;;;;20.20;6.70;;;3.20;99.90;;;;;;4996569;28;20043;-85
2021/12/20 09:33:30;;;;;;;14.90;6.50;;;3.20;99.90;;;;;;4994222;28;20051;-84
2021/12/20 09:35:56;;;;;;;20.88;6.65;;;3.40;99.90;;;;;;4975058;28;20587;-84
2021/12/20 09:38:22;;;;;;;19.17;7.57;;;3.60;99.90;;;;;;4987824;28;20051;-83
2021/12/20 09:43:46;;;;;;;21.45;7.35;;;3.80;99.90;;;;;;4996590;28;20144;-83
2021/12/20 09:46:12;;;;;;;24.52;6.93;;;4.00;99.90;;;;;;4994984;28;20108;-82
2021/12/20 09:48:38;;;;;;;29.80;7.03;;;4.00;99.90;;;;;;4990131;28;20048;-80
2021/12/20 09:51:05;;;;;;;26.63;7.10;;;4.00;99.90;;;;;;5015117;28;20418;-81
2021/12/20 09:53:31;;;;;;;25.73;7.35;;;4.20;99.90;;;;;;4997751;28;20127;-86
2021/12/20 09:56:00;;;;;;;24.80;8.60;;;4.30;99.90;;;;;;4996826;28;20957;-85
2021/12/20 09:58:27;;;;;;;20.73;7.70;;;4.40;99.90;;;;;;4998254;28;20052;-83
2021/12/20 10:00:53;;;;;;;26.73;8.10;;;4.40;99.90;;;;;;4997264;28;20426;-82
2021/12/20 10:03:21;;;;;;;18.02;6.55;;;4.50;99.90;;;;;;4992246;28;20411;-82
2021/12/20 10:05:47;;;;;;;19.98;5.82;;;4.60;99.90;;;;;;4993122;28;20047;-82
2021/12/20 10:08:16;;;;;;;19.02;6.20;;;4.70;99.90;;;;;;4974036;28;20047;-82
2021/12/20 10:10:50;;;;;;;16.77;5.35;;;4.70;99.90;;;;;;4994582;28;20051;-84
2021/12/20 10:13:32;;;;;;;19.70;6.20;;;4.80;99.90;;;;;;4995253;28;22906;-82
2021/12/20 10:16:00;;;;;;;22.88;5.97;;;4.80;99.90;;;;;;4988284;28;20909;-81
2021/12/20 10:18:28;;;;;;;21.02;5.70;;;4.80;99.90;;;;;;5013675;28;20184;-83
2021/12/20 10:20:57;;;;;;;20.90;5.97;;;4.90;99.90;;;;;;4999238;28;20039;-83
2021/12/20 10:23:30;;;;;;;22.00;5.55;;;4.90;99.90;;;;;;4996937;28;21001;-85
2021/12/20 10:26:05;;;;;;;30.08;6.65;;;4.90;99.90;;;;;;4997819;28;21943;-84
2021/12/20 10:28:36;;;;;;;25.60;5.70;;;5.00;99.90;;;;;;5014269;28;20131;-83
2021/12/20 10:31:09;;;;;;;17.90;5.10;;;5.10;99.90;;;;;;4997628;28;20528;-85
2021/12/20 10:33:35;;;;;;;21.88;5.57;;;5.20;99.90;;;;;;4998155;28;20051;-83
2021/12/20 10:36:10;;;;;;;22.20;5.10;;;5.00;99.90;;;;;;4995509;28;20050;-83
2021/12/20 10:38:40;;;;;;;24.13;5.28;;;5.00;99.90;;;;;;4989100;28;20055;-83
2021/12/20 10:41:32;;;;;;;21.23;4.93;;;5.10;99.90;;;;;;4999714;28;20607;-83
2021/12/20 10:44:01;;;;;;;22.23;4.97;;;5.10;99.90;;;;;;4998955;28;20082;-83
2021/12/20 10:46:29;;;;;;;26.83;5.18;;;5.10;99.90;;;;;;4998074;28;20548;-82
2021/12/20 10:49:02;;;;;;;27.35;5.63;;;5.10;99.90;;;;;;4998271;28;20077;-83
2021/12/20 10:51:33;;;;;;;22.63;4.55;;;5.20;99.90;;;;;;4998900;28;20048;-82
2021/12/20 10:54:02;;;;;;;21.33;5.72;;;5.40;99.90;;;;;;4992715;28;20094;-83
2021/12/20 10:56:34;;;;;;;24.40;5.03;;;5.40;99.90;;;;;;4963015;28;21018;-84
2021/12/20 10:59:05;;;;;;;25.02;5.60;;;5.50;99.90;;;;;;4992710;28;20058;-83
2021/12/20 11:04:37;;;;;;;18.85;4.97;;;5.60;99.90;;;;;;4995400;28;20454;-82
2021/12/20 11:09:43;;;;;;;22.05;5.10;;;5.70;99.90;;;;;;4992492;28;20112;-83
2021/12/20 11:12:16;;;;;;;23.38;5.63;;;5.90;99.90;;;;;;4997364;28;20047;-82
2021/12/20 11:14:48;;;;;;;19.27;5.28;;;5.80;99.90;;;;;;4999740;28;20131;-83
2021/12/20 11:17:16;;;;;;;24.98;5.57;;;6.00;99.90;;;;;;4985665;28;20061;-83
2021/12/20 11:20:04;;;;;;;19.75;5.18;;;6.00;99.90;;;;;;5008832;28;20071;-83
2021/12/20 11:22:32;;;;;;;24.30;5.40;;;6.00;99.90;;;;;;4993073;28;20336;-86
2021/12/20 11:25:07;;;;;;;20.42;5.18;;;6.20;99.90;;;;;;5013776;28;21029;-82
2021/12/20 11:27:41;;;;;;;22.42;5.10;;;6.20;99.90;;;;;;5015048;28;20052;-83
2021/12/20 11:30:16;;;;;;;16.60;4.82;;;6.40;99.90;;;;;;4984717;28;20555;-83
2021/12/20 11:32:43;;;;;;;17.60;4.45;;;6.60;99.90;;;;;;5003253;28;20055;-83
2021/12/20 11:35:09;;;;;;;18.30;4.60;;;6.60;99.90;;;;;;4995962;28;20131;-83
2021/12/20 11:37:35;;;;;;;17.55;4.57;;;6.60;99.90;;;;;;5005327;28;20417;-81
2021/12/20 11:40:05;;;;;;;20.00;4.75;;;6.80;99.90;;;;;;4966942;28;20047;-83
2021/12/20 11:42:31;;;;;;;18.25;4.68;;;6.90;99.90;;;;;;5017056;28;20047;-82
2021/12/20 11:45:00;;;;;;;17.85;4.57;;;7.00;99.90;;;;;;5003079;28;20047;-84
2021/12/20 11:47:45;;;;;;;16.45;4.25;;;7.00;99.90;;;;;;4980295;28;20054;-83
2021/12/20 11:50:13;;;;;;;20.17;4.32;;;6.70;99.90;;;;;;5004809;28;20108;-84
2021/12/20 11:52:44;;;;;;;15.88;3.85;;;7.10;99.90;;;;;;4986525;28;20432;-83
2021/12/20 11:55:20;;;;;;;14.68;4.43;;;6.90;99.90;;;;;;4982162;28;20055;-83
2021/12/20 11:58:01;;;;;;;13.90;3.63;;;7.10;99.90;;;;;;5004434;28;20610;-82
2021/12/20 12:00:35;;;;;;;17.02;4.15;;;7.20;99.90;;;;;;5016689;28;20558;-82
2021/12/20 12:03:16;;;;;;;11.93;3.65;;;7.20;99.90;;;;;;4999797;28;20866;-84
2021/12/20 12:05:58;;;;;;;16.45;3.60;;;7.40;99.90;;;;;;4985271;28;20070;-82
2021/12/20 12:08:37;;;;;;;18.88;4.90;;;7.10;99.90;;;;;;5009113;28;20050;-82
2021/12/20 12:11:09;;;;;;;15.32;3.50;;;7.50;99.90;;;;;;5033674;28;20082;-84
2021/12/20 12:13:56;;;;;;;15.32;3.60;;;7.40;99.90;;;;;;5011206;28;20586;-82
2021/12/20 12:16:30;;;;;;;13.02;3.70;;;7.30;99.90;;;;;;5010658;28;20712;-83
2021/12/20 12:19:01;;;;;;;;;;;7.60;99.90;;;;;;5003551;28;20923;-82
2021/12/20 12:21:38;;;;;;;12.38;3.65;;;7.40;99.90;;;;;;5008498;28;19930;-83
2021/12/20 12:24:07;;;;;;;14.82;3.63;;;7.60;99.90;;;;;;5002481;28;20140;-84
2021/12/20 12:26:35;;;;;;;12.55;3.42;;;7.40;99.90;;;;;;5003629;28;20416;-83
2021/12/20 12:29:03;;;;;;;14.55;3.70;;;7.30;99.90;;;;;;5003301;28;20427;-84
2021/12/20 12:31:48;;;;;;;12.27;3.40;;;7.50;99.90;;;;;;5002906;28;20275;-83
2021/12/20 12:34:15;;;;;;;11.55;3.17;;;7.70;99.90;;;;;;4987539;28;20039;-83
2021/12/20 12:36:42;;;;;;;13.10;2.90;;;7.60;99.90;;;;;;4992159;28;20523;-83
2021/12/20 12:39:25;;;;;;;12.43;3.28;;;7.40;99.90;;;;;;4994067;28;20544;-84
2021/12/20 12:42:01;;;;;;;11.82;3.55;;;7.60;99.90;;;;;;4994833;28;20043;-84
2021/12/20 12:44:32;;;;;;;15.80;4.15;;;7.70;99.90;;;;;;4999098;28;20563;-85
2021/12/20 12:47:13;;;;;;;9.75;3.67;;;7.60;99.90;;;;;;4975622;28;20085;-85
2021/12/20 12:49:50;;;;;;;12.45;4.00;;;7.90;99.90;;;;;;4991129;28;20669;-84
2021/12/20 12:52:16;;;;;;;11.15;3.53;;;8.00;99.90;;;;;;4976777;28;20890;-83
2021/12/20 12:55:02;;;;;;;11.57;3.58;;;7.90;99.90;;;;;;5007356;28;20044;-83
2021/12/20 12:57:30;;;;;;;10.43;2.95;;;7.80;99.90;;;;;;4996029;28;20047;-83
2021/12/20 12:59:57;;;;;;;10.80;2.50;;;7.50;99.90;;;;;;4997259;28;20039;-84
2021/12/20 13:02:30;;;;;;;10.50;2.53;;;7.30;99.90;;;;;;4985925;28;20585;-83
2021/12/20 13:05:13;;;;;;;12.53;3.00;;;7.60;99.90;;;;;;4997760;28;21023;-83
2021/12/20 13:07:52;;;;;;;12.05;2.85;;;7.60;99.90;;;;;;5000029;28;20086;-83
2021/12/20 13:10:19;;;;;;;12.93;2.90;;;7.70;99.90;;;;;;4999300;28;20493;-83